createdAt,value
2023-03-06T00:34:37.717Z,18.79
2023-03-06T00:35:37.981Z,18.60
2023-03-06T00:36:38.001Z,20.08
2023-03-06T00:37:38.135Z,19.02
2023-03-06T00:38:38.269Z,19.87
2023-03-06T00:39:38.400Z,18.45
2023-03-06T00:40:38.534Z,19.82
2023-03-06T00:41:38.675Z,18.11
2023-03-06T01:39:47.940Z,19.43
2023-03-06T01:40:48.174Z,18.86
2023-03-06T01:41:48.417Z,21.44
2023-03-06T01:42:48.652Z,20.72
2023-03-06T02:31:57.849Z,18.90
2023-03-06T02:32:58.095Z,21.61
2023-03-06T02:33:58.306Z,18.89
2023-03-06T02:34:58.429Z,18.70
2023-03-06T02:35:58.671Z,19.69
2023-03-06T02:36:58.875Z,18.56
2023-03-06T02:37:59.111Z,18.79
2023-03-06T02:38:59.343Z,20.00
2023-03-06T02:39:59.535Z,17.37
2023-03-06T02:40:59.759Z,17.09
2023-03-06T02:42:00.001Z,18.44
2023-03-06T02:43:00.226Z,18.66
2023-03-06T02:44:00.461Z,20.06
2023-03-06T02:45:01.051Z,17.79
2023-03-06T02:46:00.872Z,18.03
2023-03-06T02:47:01.016Z,17.44
2023-03-06T02:48:01.356Z,18.19
2023-03-06T02:49:01.621Z,17.86
2023-03-06T02:50:01.826Z,18.73
2023-03-06T02:51:02.074Z,18.52
2023-03-06T02:52:02.336Z,18.44
2023-03-06T02:53:02.549Z,18.55
2023-03-06T02:54:02.775Z,18.55
2023-03-06T02:55:03.008Z,18.69
2023-03-06T02:56:03.256Z,18.23
2023-03-06T02:57:03.533Z,17.31
2023-03-06T02:58:03.739Z,17.85
2023-03-06T02:59:03.966Z,17.31
2023-03-06T03:00:04.208Z,19.16
2023-03-06T03:01:04.433Z,18.43
2023-03-06T03:02:04.687Z,19.09
2023-03-06T03:03:04.788Z,18.28
2023-03-06T03:04:05.097Z,18.94
2023-03-06T03:05:05.268Z,18.92
2023-03-06T03:06:05.504Z,18.01
2023-03-06T03:07:05.738Z,19.29
2023-03-06T03:08:05.943Z,19.35
2023-03-06T03:09:06.181Z,18.09
2023-03-06T03:10:06.423Z,18.55
2023-03-06T03:11:06.644Z,17.44
2023-03-06T03:12:06.849Z,17.16
2023-03-06T03:13:07.082Z,18.99
2023-03-06T03:14:07.292Z,19.72
2023-03-06T03:15:07.507Z,18.58
2023-03-06T03:16:07.816Z,18.88
2023-03-06T03:17:08.006Z,19.28
2023-03-06T03:18:08.162Z,18.69
2023-03-06T03:19:08.343Z,17.92
2023-03-06T03:20:08.531Z,19.54
2023-03-06T03:21:08.640Z,18.22
2023-03-06T03:22:08.820Z,17.91
2023-03-06T03:23:09.002Z,18.54
2023-03-06T03:24:09.192Z,16.54
2023-03-06T03:25:09.369Z,20.22
2023-03-06T03:26:09.448Z,17.62
2023-03-06T03:27:09.534Z,18.08
2023-03-06T03:28:09.622Z,19.18
2023-03-06T03:29:09.735Z,17.65
2023-03-06T03:30:09.836Z,18.54
2023-03-06T03:31:10.084Z,18.06
2023-03-06T03:32:10.161Z,17.91
2023-03-06T03:33:10.214Z,18.31
2023-03-06T03:34:10.298Z,20.06
2023-03-06T03:35:10.380Z,18.08
2023-03-06T03:36:10.453Z,18.41
2023-03-06T03:37:10.561Z,18.91
2023-03-06T03:38:10.679Z,18.11
2023-03-06T03:39:10.747Z,18.13
2023-03-06T03:40:10.855Z,17.63
2023-03-06T03:41:10.934Z,19.31
2023-03-06T03:42:11.098Z,17.29
2023-03-06T03:43:11.210Z,18.83
2023-03-06T03:44:11.326Z,18.73
2023-03-06T03:45:11.437Z,17.97
2023-03-06T03:46:11.586Z,18.72
2023-03-06T03:47:11.640Z,18.25
2023-03-06T03:48:11.857Z,19.23
2023-03-06T03:49:11.929Z,18.20
2023-03-06T03:50:12.038Z,18.07
2023-03-06T03:51:12.133Z,18.29
2023-03-06T03:52:12.232Z,18.40
2023-03-06T03:53:12.361Z,18.35
2023-03-06T03:54:12.468Z,18.14
2023-03-06T03:55:12.612Z,16.99
2023-03-06T03:56:12.737Z,16.84
2023-03-06T03:57:12.872Z,15.90
2023-03-06T03:58:13.010Z,16.25
2023-03-06T03:59:13.157Z,17.43
2023-03-06T04:00:13.284Z,18.45
2023-03-06T04:01:13.422Z,17.93
2023-03-06T04:02:13.601Z,17.60
2023-03-06T04:03:13.689Z,18.19
2023-03-06T04:04:13.834Z,18.61
2023-03-06T04:05:13.982Z,17.50
2023-03-06T04:06:14.060Z,17.43
2023-03-06T04:07:14.232Z,16.78
2023-03-06T04:08:14.407Z,17.10
2023-03-06T04:09:14.532Z,17.55
2023-03-06T04:10:14.649Z,17.24
2023-03-06T04:11:14.825Z,17.72
2023-03-06T04:12:14.986Z,16.93
2023-03-06T04:13:15.255Z,15.12
2023-03-06T04:14:15.416Z,15.41
2023-03-06T04:15:15.575Z,16.89
2023-03-06T04:16:15.827Z,16.62
2023-03-06T04:17:15.904Z,17.33
2023-03-06T04:18:16.080Z,17.08
2023-03-06T04:19:16.232Z,15.84
2023-03-06T04:20:16.382Z,16.68
2023-03-06T04:21:16.535Z,16.99
2023-03-06T04:22:16.747Z,17.65
2023-03-06T04:23:16.854Z,17.42
2023-03-06T04:24:17.005Z,17.35
2023-03-06T04:25:17.155Z,18.23
2023-03-06T04:26:17.300Z,17.69
2023-03-06T04:27:17.427Z,17.97
2023-03-06T04:28:17.541Z,17.88
2023-03-06T04:29:17.654Z,17.26
2023-03-06T04:30:17.755Z,17.42
2023-03-06T04:31:17.908Z,16.97
2023-03-06T04:32:20.301Z,17.70
2023-03-06T04:33:18.025Z,17.27
2023-03-06T04:34:18.124Z,17.42
2023-03-06T04:35:18.243Z,18.21
2023-03-06T04:36:19.303Z,17.55
2023-03-06T04:37:18.386Z,16.88
2023-03-06T04:38:18.505Z,15.76
2023-03-06T04:39:18.578Z,17.02
2023-03-06T04:40:18.668Z,18.48
2023-03-06T04:41:18.765Z,17.94
2023-03-06T04:42:18.853Z,17.43
2023-03-06T04:43:18.940Z,18.09
2023-03-06T04:44:19.047Z,17.06
2023-03-06T04:45:19.132Z,16.71
2023-03-06T04:46:19.264Z,17.14
2023-03-06T04:47:19.445Z,16.50
2023-03-06T04:48:19.473Z,17.03
2023-03-06T04:49:19.609Z,16.94
2023-03-06T04:50:19.759Z,15.38
2023-03-06T04:51:19.913Z,16.25
2023-03-06T04:52:20.034Z,15.22
2023-03-06T04:53:20.173Z,15.49
2023-03-06T04:54:20.292Z,15.34
2023-03-06T04:55:20.413Z,15.09
2023-03-06T04:56:20.534Z,15.88
2023-03-06T04:57:20.642Z,14.39
2023-03-06T04:58:20.758Z,16.72
2023-03-06T04:59:20.867Z,17.22
2023-03-06T05:00:21.058Z,17.20
2023-03-06T05:01:21.304Z,17.46
2023-03-06T05:02:21.437Z,15.72
2023-03-06T05:03:21.533Z,16.66
2023-03-06T05:04:21.634Z,16.86
2023-03-06T05:05:21.781Z,16.35
2023-03-06T05:06:21.937Z,17.83
2023-03-06T05:07:22.086Z,17.55
2023-03-06T05:08:22.227Z,16.47
2023-03-06T05:09:22.368Z,16.63
2023-03-06T05:10:22.497Z,18.25
2023-03-06T05:11:22.626Z,15.39
2023-03-06T05:12:22.773Z,16.58
2023-03-06T05:13:22.945Z,18.85
2023-03-06T05:14:23.090Z,16.09
2023-03-06T05:15:23.231Z,16.35
2023-03-06T05:16:23.427Z,16.06
2023-03-06T05:17:23.562Z,17.19
2023-03-06T05:18:23.714Z,17.60
2023-03-06T05:19:23.859Z,15.97
2023-03-06T05:20:24.005Z,16.51
2023-03-06T05:52:27.724Z,18.11
2023-03-06T05:53:27.844Z,16.75
2023-03-06T05:54:27.949Z,17.78
2023-03-06T05:55:28.048Z,16.75
2023-03-06T05:56:28.153Z,17.57
2023-03-06T06:08:30.013Z,16.81
2023-03-06T06:09:30.184Z,16.02
2023-03-06T06:10:30.358Z,17.38
2023-03-06T06:11:30.501Z,17.15
2023-03-06T06:12:30.666Z,15.59
2023-03-06T06:13:30.825Z,17.43
2023-03-06T06:14:30.983Z,16.73
2023-03-06T06:15:31.206Z,15.96
2023-03-06T06:16:31.284Z,15.13
2023-03-06T06:17:31.423Z,15.86
2023-03-06T06:18:31.552Z,16.22
2023-03-06T06:19:32.088Z,15.38
2023-03-06T06:20:31.844Z,15.63
2023-03-06T06:21:31.944Z,16.24
2023-03-06T06:22:32.055Z,15.64
2023-03-06T06:23:32.167Z,15.82
2023-03-06T06:24:32.304Z,16.61
2023-03-06T06:25:32.419Z,17.44
2023-03-06T06:26:32.501Z,16.01
2023-03-06T06:27:32.673Z,16.63
2023-03-06T06:28:32.718Z,17.17
2023-03-06T06:29:32.844Z,16.80
2023-03-06T06:30:33.001Z,17.83
2023-03-06T06:31:33.185Z,16.71
2023-03-06T06:32:33.204Z,17.45
2023-03-06T06:33:33.310Z,15.04
2023-03-06T06:34:33.442Z,14.10
2023-03-06T06:35:33.566Z,14.03
2023-03-06T06:36:34.463Z,15.13
2023-03-06T06:37:33.796Z,15.21
2023-03-06T06:38:33.931Z,14.82
2023-03-06T06:39:34.047Z,15.14
2023-03-06T06:40:34.174Z,15.46
2023-03-06T06:41:53.121Z,16.26
2023-03-06T06:44:34.550Z,17.32
2023-03-06T06:45:34.644Z,15.96
2023-03-06T06:47:20.411Z,16.94
2023-03-06T06:47:34.866Z,16.78
2023-03-06T06:48:34.954Z,17.32
2023-03-06T06:49:35.036Z,17.24
2023-03-06T06:50:35.176Z,16.83
2023-03-06T06:51:35.233Z,16.48
2023-03-06T06:52:35.310Z,16.11
2023-03-06T06:53:35.401Z,15.88
2023-03-06T06:54:35.510Z,15.89
2023-03-06T06:55:35.578Z,13.32
2023-03-06T06:56:35.657Z,14.85
2023-03-06T06:57:35.727Z,14.53
2023-03-06T06:58:35.809Z,15.92
2023-03-06T06:59:35.890Z,17.29
2023-03-06T07:00:35.958Z,19.47
2023-03-06T07:01:36.151Z,20.55
2023-03-06T07:03:36.313Z,18.32
2023-03-06T07:04:36.427Z,17.68
2023-03-06T07:05:36.541Z,16.53
2023-03-06T07:06:36.780Z,18.84
2023-03-06T07:07:36.874Z,18.00
2023-03-06T07:08:37.071Z,16.89
2023-03-06T07:09:37.290Z,15.96
2023-03-06T07:10:37.516Z,16.24
2023-03-06T07:11:37.737Z,14.33
2023-03-06T07:12:37.939Z,13.65
2023-03-06T07:13:38.129Z,13.45
2023-03-06T07:14:38.337Z,12.30
2023-03-06T07:15:38.599Z,14.29
2023-03-06T07:16:38.632Z,16.51
2023-03-06T07:17:38.751Z,17.69
2023-03-06T07:18:38.867Z,17.27
2023-03-06T07:19:39.620Z,18.19
2023-03-06T07:20:39.106Z,17.23
2023-03-06T07:21:39.207Z,18.77
2023-03-06T07:22:50.393Z,16.28
2023-03-06T07:24:39.465Z,15.83
2023-03-06T07:25:39.544Z,16.16
2023-03-06T07:26:39.599Z,15.84
2023-03-06T07:27:39.776Z,15.78
2023-03-06T07:28:51.661Z,16.62
2023-03-06T07:30:40.548Z,16.66
2023-03-06T07:31:40.026Z,17.12
2023-03-06T07:32:40.056Z,18.28
2023-03-06T07:33:40.071Z,17.97
2023-03-06T07:34:40.153Z,20.19
2023-03-06T07:35:40.225Z,20.01
2023-03-06T07:36:40.287Z,21.68
2023-03-06T07:37:40.352Z,20.70
2023-03-06T07:38:40.410Z,19.56
2023-03-06T07:39:40.483Z,17.60
2023-03-06T07:40:40.540Z,19.18
2023-03-06T07:41:40.593Z,17.51
2023-03-06T07:42:40.659Z,17.11
2023-03-06T07:44:40.790Z,16.83
2023-03-06T07:45:40.847Z,18.00
2023-03-06T07:46:41.196Z,18.26
2023-03-06T07:47:40.979Z,15.54
2023-03-06T07:48:41.050Z,14.69
2023-03-06T07:49:41.109Z,14.82
2023-03-06T07:50:41.249Z,15.86
2023-03-06T07:51:41.260Z,15.55
2023-03-06T07:52:41.295Z,17.16
2023-03-06T07:53:41.362Z,15.32
2023-03-06T07:54:41.435Z,15.76
2023-03-06T07:55:41.487Z,15.17
2023-03-06T07:56:41.592Z,14.31
2023-03-06T07:57:41.620Z,15.10
2023-03-06T07:58:41.671Z,14.52
2023-03-06T07:59:41.721Z,17.50
2023-03-06T08:00:41.784Z,20.68
2023-03-06T08:01:41.853Z,16.00
2023-03-06T08:02:41.974Z,16.13
2023-03-06T08:03:42.009Z,16.15
2023-03-06T08:04:42.022Z,14.95
2023-03-06T08:05:42.084Z,17.65
2023-03-06T08:06:42.126Z,18.24
2023-03-06T08:07:42.189Z,15.11
2023-03-06T08:08:43.057Z,14.90
2023-03-06T08:09:42.291Z,13.04
2023-03-06T08:10:42.342Z,15.67
2023-03-06T08:11:42.410Z,17.92
2023-03-06T08:12:42.449Z,15.49
2023-03-06T08:13:42.494Z,15.44
2023-03-06T08:14:42.581Z,16.25
2023-03-06T08:15:42.603Z,17.21
2023-03-06T08:16:42.701Z,15.54
2023-03-06T08:17:42.711Z,16.99
2023-03-06T08:18:45.076Z,18.38
2023-03-06T08:19:42.914Z,16.49
2023-03-06T08:20:43.055Z,16.39
2023-03-06T08:21:43.207Z,15.67
2023-03-06T08:22:43.354Z,15.43
2023-03-06T08:24:43.550Z,15.59
2023-03-06T08:25:43.611Z,15.04
2023-03-06T08:26:43.668Z,14.72
2023-03-06T08:28:43.799Z,14.68
2023-03-06T08:29:43.840Z,15.76
2023-03-06T08:30:43.915Z,14.62
2023-03-06T08:31:44.022Z,16.07
2023-03-06T09:41:47.732Z,12.30
2023-03-06T10:53:53.626Z,12.99
2023-03-06T11:00:53.305Z,14.61
2023-03-06T11:01:53.393Z,15.17
2023-03-06T11:02:53.439Z,14.44
2023-03-06T11:03:53.509Z,15.58
2023-03-06T11:04:53.627Z,15.45
2023-03-06T11:37:55.744Z,15.28
2023-03-06T11:38:55.753Z,14.24
2023-03-06T11:39:55.780Z,15.46
2023-03-06T11:40:55.827Z,14.39
2023-03-06T11:41:55.848Z,15.07
2023-03-06T11:42:55.902Z,15.08
2023-03-06T11:43:55.939Z,15.91
2023-03-06T11:44:55.978Z,15.24
2023-03-06T11:45:56.031Z,15.36
2023-03-06T11:46:56.093Z,14.84
2023-03-06T11:48:56.129Z,15.96
2023-03-06T11:49:56.165Z,15.39
2023-03-06T11:50:56.217Z,15.40
2023-03-06T11:51:56.245Z,15.66
2023-03-06T11:52:56.277Z,14.58
2023-03-06T11:53:56.310Z,15.46
2023-03-06T11:54:56.356Z,14.88
2023-03-06T11:55:56.383Z,15.82
2023-03-06T11:56:56.420Z,15.90
2023-03-06T11:57:56.453Z,15.40
2023-03-06T11:58:56.481Z,14.78
2023-03-06T11:59:56.524Z,14.67
2023-03-06T12:00:56.569Z,14.84
2023-03-06T12:01:56.659Z,15.81
2023-03-06T12:02:56.656Z,14.47
2023-03-06T12:03:57.908Z,15.22
2023-03-06T12:04:56.834Z,16.30
2023-03-06T12:05:56.879Z,15.63
2023-03-06T12:06:56.928Z,14.86
2023-03-06T12:07:56.982Z,15.14
2023-03-06T12:08:57.042Z,15.80
2023-03-06T12:09:57.132Z,14.47
2023-03-06T12:10:57.218Z,15.56
2023-03-06T12:11:57.287Z,15.26
2023-03-06T12:12:57.358Z,14.78
2023-03-06T12:13:58.321Z,15.14
2023-03-06T12:14:57.528Z,14.86
2023-03-06T12:15:57.581Z,14.86
2023-03-06T12:16:57.673Z,13.82
2023-03-06T12:17:57.735Z,14.79
2023-03-06T12:18:57.785Z,16.35
2023-03-06T12:19:57.814Z,15.54
2023-03-06T12:20:57.869Z,14.47
2023-03-06T12:21:58.113Z,15.76
2023-03-06T12:23:14.206Z,15.44
2023-03-06T12:24:57.967Z,14.71
2023-03-06T12:25:57.969Z,14.01
2023-03-06T12:26:58.598Z,15.08
2023-03-06T12:27:57.980Z,15.15
2023-03-06T12:28:57.984Z,15.94
2023-03-06T12:29:58.002Z,14.09
2023-03-06T12:30:57.977Z,15.16
2023-03-06T12:31:58.051Z,15.61
2023-03-06T12:32:57.952Z,14.73
2023-03-06T12:33:57.933Z,15.78
2023-03-06T12:34:57.927Z,14.07
2023-03-06T12:35:57.951Z,15.39
2023-03-06T12:36:57.887Z,15.38
2023-03-06T12:37:57.886Z,14.87
2023-03-06T12:38:57.891Z,14.41
2023-03-06T12:39:57.927Z,14.05
2023-03-06T12:40:57.912Z,13.43
2023-03-06T13:40:58.655Z,12.99
2023-03-06T13:41:58.745Z,13.48
2023-03-06T13:42:58.656Z,13.77
2023-03-06T13:43:58.655Z,13.87
2023-03-06T13:44:58.640Z,13.65
2023-03-06T13:45:58.706Z,13.57
2023-03-06T13:46:58.646Z,13.63
2023-03-06T13:49:58.603Z,13.84
2023-03-06T13:51:58.584Z,13.96
2023-03-06T19:17:03.269Z,22.59
2023-03-06T19:18:03.435Z,23.12
2023-03-06T19:19:03.528Z,23.62
2023-03-06T19:20:03.586Z,23.93
2023-03-06T19:21:03.653Z,21.50
2023-03-06T19:22:03.701Z,22.88
2023-03-06T19:23:03.761Z,23.46
2023-03-06T19:24:03.810Z,22.01
2023-03-06T19:25:04.064Z,23.36
2023-03-06T19:26:03.921Z,26.20
2023-03-06T19:27:03.974Z,23.46
2023-03-06T19:28:04.013Z,22.77
2023-03-06T19:29:04.049Z,23.05
2023-03-06T19:30:04.094Z,24.08
2023-03-06T19:31:04.163Z,23.27
2023-03-06T19:32:04.372Z,22.95
2023-03-06T19:33:04.296Z,23.22
2023-03-06T19:34:04.372Z,23.75
2023-03-06T19:35:04.421Z,23.45
2023-03-06T19:36:04.492Z,24.92
2023-03-06T19:37:04.583Z,22.68
2023-03-06T19:38:04.691Z,22.18
2023-03-06T19:39:04.792Z,23.95
2023-03-06T19:40:04.881Z,25.02
2023-03-06T19:41:04.963Z,24.16
2023-03-06T19:42:05.074Z,22.83
2023-03-06T19:43:05.133Z,24.02
2023-03-06T19:44:05.206Z,24.58
2023-03-06T19:45:05.263Z,25.55
2023-03-06T19:46:05.497Z,24.30
2023-03-06T19:47:05.397Z,25.54
2023-03-06T19:48:05.489Z,23.70
2023-03-06T19:49:05.533Z,24.08
2023-03-06T19:50:05.599Z,23.77
2023-03-06T19:51:05.676Z,24.70
2023-03-06T19:52:05.744Z,23.52
2023-03-06T19:53:05.826Z,24.38
2023-03-06T19:54:05.926Z,24.88
2023-03-06T19:55:05.999Z,24.34
2023-03-06T19:56:06.086Z,23.16
2023-03-06T19:57:06.143Z,24.99
2023-03-06T19:58:06.221Z,24.00
2023-03-06T19:59:06.296Z,25.19
2023-03-06T20:00:06.378Z,23.15
2023-03-06T20:01:06.492Z,25.36
2023-03-06T20:02:06.520Z,22.94
2023-03-06T20:03:06.609Z,25.41
2023-03-06T20:04:06.749Z,22.54
2023-03-06T20:05:09.171Z,25.41
2023-03-06T20:06:06.932Z,24.66
2023-03-06T20:07:07.025Z,23.78
2023-03-06T20:08:07.180Z,24.10
2023-03-06T20:09:07.233Z,23.16
2023-03-06T20:10:07.288Z,23.37
2023-03-06T20:11:07.385Z,22.33
2023-03-06T20:12:08.370Z,24.70
2023-03-06T20:13:07.557Z,22.99
2023-03-06T20:14:07.710Z,24.25
2023-03-06T20:15:07.709Z,24.12
2023-03-06T20:16:07.798Z,23.02
2023-03-06T20:17:07.837Z,24.21
2023-03-06T20:18:07.884Z,24.86
2023-03-06T20:19:07.959Z,23.90
2023-03-06T20:20:08.030Z,22.93
2023-03-06T20:21:08.091Z,23.26
2023-03-06T20:22:08.120Z,23.21
2023-03-06T20:23:08.170Z,22.55
2023-03-06T20:24:08.221Z,24.51
2023-03-06T20:25:08.293Z,22.76
2023-03-06T20:26:08.299Z,24.05
2023-03-06T20:27:08.349Z,24.05
2023-03-06T20:28:08.398Z,24.21
2023-03-06T20:29:08.421Z,24.72
2023-03-06T20:30:08.482Z,24.21
2023-03-06T20:31:08.498Z,22.44
2023-03-06T20:32:08.536Z,23.22
2023-03-06T20:33:08.567Z,26.39
2023-03-06T20:34:08.612Z,26.15
2023-03-06T20:35:08.665Z,25.23
2023-03-06T20:36:08.746Z,24.65
2023-03-06T20:37:08.750Z,24.67
2023-03-06T20:38:08.805Z,24.96
2023-03-06T20:39:08.931Z,22.74
2023-03-06T20:40:09.014Z,25.46
2023-03-06T20:41:09.090Z,23.20
2023-03-06T20:42:09.176Z,23.56
2023-03-06T20:43:09.274Z,24.01
2023-03-06T20:44:09.351Z,22.74
2023-03-06T20:45:09.444Z,24.58
2023-03-06T20:46:09.602Z,24.78
2023-03-06T20:47:09.656Z,24.89
2023-03-06T20:48:09.742Z,24.71
2023-03-06T20:49:09.830Z,24.06
2023-03-06T20:50:09.947Z,24.69
2023-03-06T20:51:10.049Z,23.67
2023-03-06T20:52:10.156Z,24.49
2023-03-06T20:53:10.341Z,25.51
2023-03-06T20:54:10.319Z,25.93
2023-03-06T20:55:10.406Z,27.88
2023-03-06T20:56:10.465Z,26.48
2023-03-06T20:57:10.524Z,25.40
2023-03-06T20:58:10.584Z,25.66
2023-03-06T20:59:10.657Z,24.25
2023-03-06T21:00:10.728Z,24.19
2023-03-06T21:01:10.806Z,24.65
2023-03-06T21:02:10.893Z,24.96
2023-03-06T21:03:10.985Z,24.38
2023-03-06T21:04:11.090Z,24.99
2023-03-06T21:05:11.244Z,24.97
2023-03-06T21:16:12.090Z,26.48
2023-03-06T21:29:13.296Z,26.19
2023-03-06T21:30:13.478Z,27.93
2023-03-06T21:31:13.634Z,30.11
2023-03-06T21:32:13.783Z,27.41
2023-03-06T21:33:13.995Z,28.42
2023-03-06T21:35:14.431Z,26.50
2023-03-06T21:36:14.635Z,26.20
2023-03-06T21:37:14.834Z,26.66
2023-03-06T21:38:15.042Z,25.03
2023-03-06T21:39:15.258Z,24.02
2023-03-06T21:40:15.456Z,23.67
2023-03-06T21:41:15.664Z,24.69
2023-03-06T21:42:15.880Z,27.50
2023-03-06T21:43:16.109Z,28.19
2023-03-06T21:44:16.272Z,27.84
2023-03-06T21:45:16.471Z,25.32
2023-03-06T21:46:16.712Z,24.30
2023-03-06T21:47:16.865Z,24.64
2023-03-06T21:48:16.996Z,24.08
2023-03-06T21:49:17.168Z,26.01
2023-03-06T21:50:17.352Z,28.03
2023-03-06T21:51:17.534Z,26.62
2023-03-06T21:52:17.608Z,29.77
2023-03-06T21:53:17.694Z,28.54
2023-03-06T21:54:17.800Z,28.07
2023-03-06T21:55:17.872Z,28.53
2023-03-06T21:56:17.947Z,26.46
2023-03-06T21:57:18.036Z,25.04
2023-03-06T21:58:18.130Z,24.70
2023-03-06T21:59:18.230Z,24.74
2023-03-06T22:00:18.320Z,25.44
2023-03-06T22:01:18.446Z,26.27
2023-03-06T22:02:18.509Z,26.05
2023-03-06T22:03:18.614Z,26.25
2023-03-06T22:04:18.769Z,25.76
2023-03-06T22:05:18.819Z,21.93
2023-03-06T22:06:18.927Z,24.69
2023-03-06T22:07:19.022Z,25.28
2023-03-06T22:08:19.206Z,26.50
2023-03-06T22:09:19.304Z,25.93
2023-03-06T22:12:19.614Z,26.40
2023-03-06T22:13:19.717Z,21.93
2023-03-06T22:14:19.816Z,25.13
2023-03-06T22:15:19.925Z,23.98
2023-03-06T22:17:20.122Z,24.91
2023-03-06T22:18:20.220Z,25.52
2023-03-06T22:19:20.305Z,24.27
2023-03-06T22:20:20.403Z,24.02
2023-03-06T22:21:20.514Z,24.44
2023-03-06T22:55:23.345Z,23.44
2023-03-06T22:56:23.438Z,25.28
2023-03-06T22:57:23.531Z,25.76
2023-03-06T22:58:23.608Z,24.86
2023-03-06T22:59:23.712Z,26.80
2023-03-06T23:00:23.838Z,25.20
2023-03-06T23:01:23.866Z,24.28
2023-03-06T23:02:23.894Z,23.58
2023-03-06T23:03:23.947Z,23.57
2023-03-06T23:05:24.071Z,22.83
2023-03-06T23:06:24.132Z,23.82
2023-03-06T23:07:24.197Z,23.00
2023-03-06T23:08:24.293Z,23.29
2023-03-06T23:09:24.359Z,28.18
2023-03-06T23:10:24.418Z,31.06
2023-03-06T23:11:24.468Z,32.74
2023-03-06T23:12:24.532Z,32.11
2023-03-06T23:13:24.589Z,29.31
2023-03-06T23:14:24.674Z,31.74
2023-03-06T23:15:24.849Z,31.63
2023-03-06T23:16:24.777Z,26.99
2023-03-06T23:17:24.866Z,27.20
2023-03-06T23:18:24.932Z,26.84
2023-03-06T23:19:24.989Z,27.01
2023-03-06T23:21:25.294Z,28.47
2023-03-06T23:22:25.210Z,24.01
